Armagh, United Kingdom
Current Conditions -  °F | °C
As of 3:20 AM on Thursday 23 Oct 2014 (Local Time) from EGAA Reporting Station
Overcast Overcast  
Wind Chill: 54°   Ceiling: 1300
Heat Index: 54°   Visibility: 6mi
Dew Point: 50°   Wind: 12mph
Humidity: 88%   Direction: 230°SW
Pressure: 29.91"   Gusts: NA
Location:  54.35°N, 6.67°W
Report Text: EGAA 230220Z 23010KT 9999 SCT008 BKN013 OVC018 12/10 Q1013
Loading
Personal Weather Stations






























Interactive Weather Map
Tropical Storm Tracking
New forecast layout! Learn more

10-Day Weather Forecast

Advertisements
Track Severe Weather on mobile